createdAt,value
2022-09-26T00:00:26.347Z,4.07
2022-09-26T00:02:53.906Z,4.30
2022-09-26T00:05:21.380Z,4.07
2022-09-26T00:07:48.820Z,3.97
2022-09-26T00:10:16.296Z,4.33
2022-09-26T00:12:43.726Z,3.90
2022-09-26T00:15:11.390Z,4.20
2022-09-26T00:17:38.823Z,4.30
2022-09-26T00:20:06.526Z,4.27
2022-09-26T00:22:36.569Z,4.20
2022-09-26T00:25:07.143Z,4.20
2022-09-26T00:27:34.885Z,4.10
2022-09-26T00:30:02.326Z,4.20
2022-09-26T00:32:29.825Z,4.50
2022-09-26T00:34:57.242Z,4.87
2022-09-26T00:37:24.746Z,4.33
2022-09-26T00:39:52.191Z,4.17
2022-09-26T00:42:25.844Z,3.97
2022-09-26T00:44:54.071Z,4.67
2022-09-26T00:47:41.779Z,4.53
2022-09-26T00:50:27.252Z,4.50
2022-09-26T00:52:57.465Z,4.40
2022-09-26T00:55:27.700Z,4.70
2022-09-26T00:57:58.477Z,4.60
2022-09-26T01:00:26.261Z,5.03
2022-09-26T01:02:54.149Z,4.27
2022-09-26T01:05:23.352Z,4.37
2022-09-26T01:07:52.945Z,4.80
2022-09-26T01:10:20.416Z,4.83
2022-09-26T01:12:47.907Z,5.17
2022-09-26T01:15:15.351Z,4.60
2022-09-26T01:17:44.158Z,4.17
2022-09-26T01:20:24.090Z,4.60
2022-09-26T01:22:51.501Z,5.23
2022-09-26T01:25:31.268Z,4.80
2022-09-26T01:28:09.789Z,4.93
2022-09-26T01:30:43.385Z,5.07
2022-09-26T01:33:13.724Z,5.23
2022-09-26T01:35:41.150Z,5.13
2022-09-26T01:38:23.592Z,5.27
2022-09-26T01:41:05.600Z,5.67
2022-09-26T01:43:36.342Z,6.10
2022-09-26T01:46:18.994Z,5.27
2022-09-26T01:48:48.302Z,5.80
2022-09-26T01:51:20.257Z,5.53
2022-09-26T01:53:50.344Z,6.17
2022-09-26T01:56:20.659Z,5.90
2022-09-26T01:58:50.632Z,5.33
2022-09-26T02:01:19.060Z,5.70
2022-09-26T02:03:48.450Z,5.53
2022-09-26T02:06:24.744Z,6.20
2022-09-26T02:08:56.721Z,6.23
2022-09-26T02:11:24.660Z,5.70
2022-09-26T02:13:52.117Z,6.20
2022-09-26T02:16:26.772Z,6.50
2022-09-26T02:18:57.617Z,5.87
2022-09-26T02:21:25.183Z,5.57
2022-09-26T02:23:53.374Z,5.80
2022-09-26T02:26:20.965Z,5.80
2022-09-26T02:28:48.460Z,5.73
2022-09-26T02:31:18.100Z,5.90
2022-09-26T02:33:45.680Z,5.70
2022-09-26T02:36:13.128Z,6.23
2022-09-26T02:38:40.601Z,6.23
2022-09-26T02:41:26.774Z,6.87
2022-09-26T02:44:12.532Z,6.70
2022-09-26T02:46:58.779Z,6.60
2022-09-26T02:49:44.485Z,6.20
2022-09-26T02:52:28.158Z,7.40
2022-09-26T02:55:02.882Z,6.93
2022-09-26T02:57:38.751Z,7.47
2022-09-26T03:00:15.208Z,7.33
2022-09-26T03:02:42.694Z,7.20
2022-09-26T03:05:12.271Z,7.20
2022-09-26T03:07:45.338Z,7.83
2022-09-26T03:10:13.706Z,7.33
2022-09-26T03:12:43.021Z,6.93
2022-09-26T03:15:11.092Z,8.00
2022-09-26T03:17:40.692Z,7.40
2022-09-26T03:20:15.346Z,6.97
2022-09-26T03:22:42.936Z,6.43
2022-09-26T03:25:11.773Z,7.00
2022-09-26T03:27:40.764Z,6.00
2022-09-26T03:30:08.594Z,7.00
2022-09-26T03:32:36.052Z,7.57
2022-09-26T03:35:04.067Z,6.80
2022-09-26T03:37:34.075Z,7.10
2022-09-26T03:40:03.221Z,7.47
2022-09-26T03:42:30.690Z,6.97
2022-09-26T03:44:58.097Z,6.93
2022-09-26T03:47:25.613Z,7.10
2022-09-26T03:49:53.145Z,7.13
2022-09-26T03:52:20.827Z,7.20
2022-09-26T03:54:48.253Z,6.40
2022-09-26T03:57:16.246Z,7.20
2022-09-26T03:59:44.156Z,6.57
2022-09-26T04:02:11.674Z,6.87
2022-09-26T04:04:39.177Z,6.60
2022-09-26T04:07:06.591Z,6.40
2022-09-26T04:09:34.047Z,7.13
2022-09-26T04:12:01.558Z,6.43
2022-09-26T04:14:29.006Z,6.70
2022-09-26T04:16:56.478Z,6.17
2022-09-26T04:19:23.934Z,6.57
2022-09-26T04:21:51.376Z,6.47
2022-09-26T04:24:18.936Z,5.40
2022-09-26T04:26:46.352Z,5.93
2022-09-26T04:29:16.739Z,5.87
2022-09-26T04:31:44.507Z,6.03
2022-09-26T04:34:14.645Z,6.23
2022-09-26T04:36:42.095Z,6.40
2022-09-26T04:39:09.566Z,6.17
2022-09-26T04:41:37.158Z,6.17
2022-09-26T04:44:04.601Z,6.17
2022-09-26T04:46:32.078Z,7.20
2022-09-26T04:49:00.233Z,6.20
2022-09-26T04:51:28.536Z,7.20
2022-09-26T04:53:56.198Z,6.77
2022-09-26T04:56:24.840Z,6.70
2022-09-26T04:58:52.875Z,6.30
2022-09-26T05:01:21.012Z,6.03
2022-09-26T05:03:48.781Z,6.37
2022-09-26T05:06:16.822Z,5.93
2022-09-26T05:08:44.944Z,5.67
2022-09-26T05:11:12.869Z,5.17
2022-09-26T05:13:40.331Z,5.70
2022-09-26T05:16:08.234Z,6.03
2022-09-26T05:18:36.114Z,6.40
2022-09-26T05:21:03.566Z,6.00
2022-09-26T05:23:30.990Z,5.23
2022-09-26T05:25:58.447Z,5.60
2022-09-26T05:28:26.826Z,5.00
2022-09-26T05:30:54.245Z,4.60
2022-09-26T05:33:22.139Z,5.20
2022-09-26T05:35:50.426Z,4.90
2022-09-26T05:38:17.861Z,4.57
2022-09-26T05:40:45.488Z,4.63
2022-09-26T05:43:12.992Z,4.20
2022-09-26T05:45:40.581Z,4.73
2022-09-26T05:48:08.156Z,4.37
2022-09-26T05:50:38.422Z,4.13
2022-09-26T05:53:07.875Z,3.90
2022-09-26T05:55:35.309Z,4.53
2022-09-26T05:58:02.788Z,3.87
2022-09-26T06:00:30.202Z,4.10
2022-09-26T06:02:58.049Z,3.50
2022-09-26T06:05:26.142Z,3.90
2022-09-26T06:07:53.965Z,3.60
2022-09-26T06:10:21.716Z,3.90
2022-09-26T06:12:51.217Z,3.33
2022-09-26T06:15:18.843Z,3.70
2022-09-26T06:17:46.381Z,3.93
2022-09-26T06:20:13.797Z,3.33
2022-09-26T06:22:42.142Z,3.40
2022-09-26T06:25:10.075Z,3.50
2022-09-26T06:27:38.199Z,3.30
2022-09-26T06:30:08.844Z,3.57
2022-09-26T06:32:36.236Z,5.07
2022-09-26T06:35:03.679Z,3.70
2022-09-26T06:37:31.150Z,3.33
2022-09-26T06:39:59.553Z,3.37
2022-09-26T06:42:27.124Z,2.90
2022-09-26T06:44:54.552Z,3.73
2022-09-26T06:47:21.952Z,3.70
2022-09-26T06:49:49.343Z,3.20
2022-09-26T06:52:16.782Z,3.40
2022-09-26T06:54:44.198Z,3.03
2022-09-26T06:57:14.939Z,3.53
2022-09-26T06:59:42.666Z,3.70
2022-09-26T07:02:10.308Z,3.27
2022-09-26T07:04:37.865Z,3.23
2022-09-26T07:07:05.297Z,3.73
2022-09-26T07:09:32.751Z,3.43
2022-09-26T07:12:16.229Z,3.27
2022-09-26T07:14:44.034Z,2.93
2022-09-26T07:17:14.883Z,3.27
2022-09-26T07:19:42.517Z,3.13
2022-09-26T07:22:10.010Z,4.00
2022-09-26T07:24:37.462Z,3.90
2022-09-26T07:27:04.891Z,3.40
2022-09-26T07:29:32.367Z,3.70
2022-09-26T07:32:00.048Z,2.80
2022-09-26T07:34:27.504Z,3.57
2022-09-26T07:36:54.900Z,3.10
2022-09-26T07:39:22.376Z,2.70
2022-09-26T07:41:50.786Z,2.70
2022-09-26T07:45:08.759Z,2.50
2022-09-26T07:47:06.005Z,2.93
2022-09-26T07:49:33.553Z,2.73
2022-09-26T07:52:01.019Z,2.53
2022-09-26T07:54:28.419Z,2.10
2022-09-26T07:56:55.918Z,2.00
2022-09-26T07:59:23.416Z,2.70
2022-09-26T08:01:52.987Z,3.00
2022-09-26T08:04:20.770Z,2.27
2022-09-26T08:06:48.192Z,2.07
2022-09-26T08:09:15.873Z,2.10
2022-09-26T08:11:43.403Z,2.50
2022-09-26T08:14:10.852Z,1.80
2022-09-26T08:16:38.374Z,2.20
2022-09-26T08:19:05.869Z,2.20
2022-09-26T08:21:33.467Z,2.27
2022-09-26T08:24:01.330Z,2.17
2022-09-26T08:26:28.935Z,2.20
2022-09-26T08:28:56.398Z,2.33
2022-09-26T08:31:23.870Z,1.87
2022-09-26T08:33:51.362Z,2.13
2022-09-26T08:36:18.835Z,2.30
2022-09-26T08:38:49.888Z,1.97
2022-09-26T08:41:26.524Z,2.20
2022-09-26T08:43:53.953Z,1.80
2022-09-26T08:46:39.875Z,2.07
2022-09-26T08:49:38.405Z,1.90
2022-09-26T08:52:23.608Z,1.67
2022-09-26T08:54:52.722Z,1.90
2022-09-26T08:57:38.775Z,1.70
2022-09-26T09:00:16.132Z,1.97
2022-09-26T09:03:05.363Z,1.77
2022-09-26T09:05:37.023Z,1.60
2022-09-26T09:08:06.378Z,1.87
2022-09-26T09:10:54.933Z,1.90
2022-09-26T09:14:10.805Z,2.10
2022-09-26T09:16:40.805Z,1.90
2022-09-26T09:19:38.678Z,2.30
2022-09-26T09:22:43.469Z,1.80
2022-09-26T09:25:28.620Z,1.87
2022-09-26T09:28:08.665Z,1.87
2022-09-26T09:30:41.605Z,1.83
2022-09-26T09:33:40.025Z,1.63
2022-09-26T09:36:11.621Z,1.73
2022-09-26T09:38:41.752Z,2.03
2022-09-26T09:41:35.111Z,1.73
2022-09-26T09:44:28.984Z,1.60
2022-09-26T09:46:56.251Z,1.77
2022-09-26T09:49:24.468Z,1.87
2022-09-26T09:51:52.381Z,1.77
2022-09-26T09:54:29.009Z,1.80
2022-09-26T09:57:23.526Z,1.83
2022-09-26T10:00:24.128Z,1.60
2022-09-26T10:03:02.339Z,1.83
2022-09-26T10:05:37.731Z,1.67
2022-09-26T10:08:11.689Z,1.57
2022-09-26T10:10:39.969Z,1.37
2022-09-26T10:13:09.133Z,1.77
2022-09-26T10:15:37.704Z,2.10
2022-09-26T10:18:27.345Z,1.60
2022-09-26T10:20:57.207Z,1.80
2022-09-26T10:23:25.531Z,1.40
2022-09-26T10:25:54.556Z,1.70
2022-09-26T10:28:25.170Z,1.40
2022-09-26T10:30:55.698Z,1.70
2022-09-26T10:33:26.205Z,1.90
2022-09-26T10:36:01.003Z,1.93
2022-09-26T10:38:29.431Z,1.73
2022-09-26T10:41:02.693Z,1.70
2022-09-26T10:43:38.232Z,1.50
2022-09-26T10:46:12.376Z,1.90
2022-09-26T10:48:40.855Z,1.50
2022-09-26T10:51:09.965Z,1.50
2022-09-26T10:53:39.515Z,1.47
2022-09-26T10:56:10.224Z,1.77
2022-09-26T10:58:43.461Z,1.90
2022-09-26T11:01:18.405Z,1.50
2022-09-26T11:03:46.544Z,1.40
2022-09-26T11:06:25.261Z,1.70
2022-09-26T11:08:54.734Z,1.50
2022-09-26T11:11:22.264Z,1.60
2022-09-26T11:14:08.519Z,1.53
2022-09-26T11:17:02.233Z,2.03
2022-09-26T11:19:36.854Z,1.43
2022-09-26T11:22:22.136Z,1.77
2022-09-26T11:25:04.276Z,1.40
2022-09-26T11:27:36.219Z,1.40
2022-09-26T11:30:12.412Z,1.60
2022-09-26T11:32:42.202Z,1.33
2022-09-26T11:35:28.072Z,1.40
2022-09-26T11:37:56.699Z,1.50
2022-09-26T11:40:35.148Z,1.33
2022-09-26T11:43:06.694Z,1.33
2022-09-26T11:45:50.746Z,1.10
2022-09-26T11:48:58.015Z,2.60
2022-09-26T11:51:45.122Z,3.20
2022-09-26T11:54:46.047Z,2.30
2022-09-26T11:57:29.896Z,2.03
2022-09-26T12:00:04.285Z,1.90
2022-09-26T12:02:35.810Z,1.90
2022-09-26T12:05:24.640Z,2.17
2022-09-26T12:07:55.203Z,1.73
2022-09-26T12:10:39.065Z,2.03
2022-09-26T12:13:12.689Z,1.80
2022-09-26T12:15:56.315Z,1.73
2022-09-26T12:18:24.775Z,2.33
2022-09-26T12:21:01.367Z,2.00
2022-09-26T12:23:47.303Z,2.00
2022-09-26T12:26:35.017Z,1.67
2022-09-26T12:29:14.957Z,2.10
2022-09-26T12:31:46.771Z,1.67
2022-09-26T12:34:23.082Z,1.90
2022-09-26T12:36:50.555Z,1.90
2022-09-26T12:39:17.994Z,1.93
2022-09-26T12:41:45.467Z,1.97
2022-09-26T12:44:31.874Z,2.40
2022-09-26T12:47:15.931Z,1.60
2022-09-26T12:50:03.664Z,1.43
2022-09-26T12:52:49.309Z,1.40
2022-09-26T12:55:20.113Z,1.70
2022-09-26T12:58:05.670Z,1.57
2022-09-26T13:00:44.255Z,1.80
2022-09-26T13:03:26.548Z,1.70
2022-09-26T13:06:15.211Z,1.93
2022-09-26T13:09:16.394Z,1.93
2022-09-26T13:11:46.813Z,1.60
2022-09-26T13:14:17.588Z,1.60
2022-09-26T13:17:04.574Z,1.70
2022-09-26T13:19:51.629Z,2.20
2022-09-26T13:22:23.037Z,1.60
2022-09-26T13:25:10.526Z,1.80
2022-09-26T13:27:59.196Z,1.70
2022-09-26T13:30:32.875Z,3.23
2022-09-26T13:33:08.731Z,3.13
2022-09-26T13:35:36.685Z,4.03
2022-09-26T13:38:09.377Z,2.00
2022-09-26T13:40:39.921Z,2.67
2022-09-26T13:43:13.419Z,2.27
2022-09-26T13:45:50.497Z,2.40
2022-09-26T13:48:29.860Z,1.60
2022-09-26T13:51:03.634Z,2.40
2022-09-26T13:53:34.571Z,1.90
2022-09-26T13:56:21.170Z,2.47
2022-09-26T13:59:03.186Z,2.73
2022-09-26T14:01:31.367Z,2.33
2022-09-26T14:04:17.511Z,1.80
2022-09-26T14:07:12.024Z,2.67
2022-09-26T14:09:47.651Z,1.47
2022-09-26T14:12:20.948Z,2.77
2022-09-26T14:14:52.535Z,2.10
2022-09-26T14:17:46.080Z,2.57
2022-09-26T14:20:27.485Z,2.00
2022-09-26T14:22:56.803Z,1.70
2022-09-26T14:25:43.581Z,2.30
2022-09-26T14:28:22.244Z,2.10
2022-09-26T14:31:09.072Z,2.13
2022-09-26T14:33:37.384Z,2.30
2022-09-26T14:36:24.188Z,1.83
2022-09-26T14:38:52.949Z,2.20
2022-09-26T14:41:22.491Z,2.10
2022-09-26T14:43:52.060Z,2.10
2022-09-26T14:46:24.763Z,2.33
2022-09-26T14:49:01.362Z,2.20
2022-09-26T14:51:31.104Z,2.00
2022-09-26T14:54:00.583Z,2.20
2022-09-26T14:56:28.095Z,1.87
2022-09-26T14:59:15.095Z,2.03
2022-09-26T15:01:43.846Z,1.90
2022-09-26T15:04:19.364Z,2.10
2022-09-26T15:07:07.416Z,2.30
2022-09-26T15:09:42.623Z,1.80
2022-09-26T15:12:23.117Z,2.30
2022-09-26T15:14:53.160Z,1.53
2022-09-26T15:17:24.328Z,1.90
2022-09-26T15:19:53.895Z,1.77
2022-09-26T15:22:23.238Z,1.60
2022-09-26T15:25:07.361Z,2.20
2022-09-26T15:27:40.648Z,2.03
2022-09-26T15:30:17.451Z,1.60
2022-09-26T15:32:46.781Z,1.53
2022-09-26T15:35:14.730Z,1.80
2022-09-26T15:37:42.702Z,1.73
2022-09-26T15:40:18.221Z,1.63
2022-09-26T15:42:45.734Z,1.80
2022-09-26T15:45:17.931Z,1.60
2022-09-26T15:47:45.471Z,1.70
2022-09-26T15:50:15.110Z,1.47
2022-09-26T15:52:48.395Z,1.97
2022-09-26T15:55:20.722Z,1.60
2022-09-26T15:57:49.621Z,1.60
2022-09-26T16:00:18.189Z,1.30
2022-09-26T16:02:45.823Z,1.40
2022-09-26T16:05:13.957Z,1.40
2022-09-26T16:07:41.872Z,1.33
2022-09-26T16:10:20.608Z,1.50
2022-09-26T16:12:48.061Z,2.27
2022-09-26T16:15:17.415Z,2.87
2022-09-26T16:17:53.614Z,2.13
2022-09-26T16:20:21.093Z,2.27
2022-09-26T16:22:48.541Z,1.67
2022-09-26T16:25:16.050Z,1.53
2022-09-26T16:27:43.551Z,2.20
2022-09-26T16:30:20.093Z,2.60
2022-09-26T16:32:47.723Z,1.90
2022-09-26T16:35:19.035Z,1.57
2022-09-26T16:38:03.086Z,1.80
2022-09-26T16:40:31.657Z,2.63
2022-09-26T16:43:06.361Z,2.87
2022-09-26T16:45:33.843Z,2.10
2022-09-26T16:48:01.358Z,2.20
2022-09-26T16:50:32.831Z,2.00
2022-09-26T16:53:01.666Z,2.17
2022-09-26T16:55:32.207Z,2.10
2022-09-26T16:58:03.307Z,1.87
2022-09-26T17:00:31.659Z,1.90
2022-09-26T17:02:59.418Z,1.70
2022-09-26T17:05:27.284Z,2.43
2022-09-26T17:07:54.856Z,2.07
2022-09-26T17:10:25.127Z,1.90
2022-09-26T17:12:53.056Z,2.17
2022-09-26T17:15:23.906Z,2.43
2022-09-26T17:17:51.500Z,2.03
2022-09-26T17:20:18.997Z,2.27
2022-09-26T17:22:46.514Z,2.20
2022-09-26T17:25:15.257Z,2.03
2022-09-26T17:27:43.234Z,2.00
2022-09-26T17:30:18.113Z,2.60
2022-09-26T17:32:48.617Z,2.00
2022-09-26T17:35:34.541Z,1.80
2022-09-26T17:38:02.222Z,1.80
2022-09-26T17:40:31.329Z,1.80
2022-09-26T17:43:01.702Z,1.80
2022-09-26T17:45:36.707Z,1.60
2022-09-26T17:48:14.924Z,1.70
2022-09-26T17:50:42.542Z,1.80
2022-09-26T17:53:15.200Z,1.73
2022-09-26T17:55:42.665Z,1.80
2022-09-26T17:58:10.706Z,1.70
2022-09-26T18:00:38.207Z,1.97
2022-09-26T18:03:05.862Z,1.50
2022-09-26T18:05:35.241Z,1.77
2022-09-26T18:08:06.178Z,1.40
2022-09-26T18:10:34.584Z,1.60
2022-09-26T18:13:05.126Z,1.50
2022-09-26T18:15:34.981Z,1.50
2022-09-26T18:18:03.005Z,1.77
2022-09-26T18:20:40.587Z,1.80
2022-09-26T18:23:09.382Z,1.60
2022-09-26T18:25:36.959Z,1.50
2022-09-26T18:28:07.491Z,1.70
2022-09-26T18:30:35.074Z,1.80
2022-09-26T18:33:02.615Z,2.07
2022-09-26T18:35:30.107Z,2.00
2022-09-26T18:37:57.569Z,1.90
2022-09-26T18:40:26.406Z,1.80
2022-09-26T18:42:54.506Z,2.33
2022-09-26T18:45:26.250Z,1.63
2022-09-26T18:47:53.954Z,1.60
2022-09-26T18:50:27.792Z,1.87
2022-09-26T18:52:54.977Z,1.87
2022-09-26T18:55:26.760Z,2.00
2022-09-26T18:57:53.999Z,2.10
2022-09-26T19:00:21.229Z,2.57
2022-09-26T19:02:49.104Z,2.40
2022-09-26T19:05:17.009Z,2.30
2022-09-26T19:07:44.583Z,2.20
2022-09-26T19:10:17.109Z,2.40
2022-09-26T19:12:44.496Z,1.90
2022-09-26T19:15:15.565Z,2.27
2022-09-26T19:17:42.940Z,2.33
2022-09-26T19:20:10.413Z,2.50
2022-09-26T19:22:37.690Z,2.40
2022-09-26T19:25:06.193Z,2.50
2022-09-26T19:27:44.259Z,2.30
2022-09-26T19:30:13.892Z,2.83
2022-09-26T19:32:44.581Z,2.47
2022-09-26T19:35:21.336Z,2.60
2022-09-26T19:37:48.997Z,2.80
2022-09-26T19:40:18.361Z,2.07
2022-09-26T19:42:45.897Z,2.17
2022-09-26T19:45:14.804Z,2.50
2022-09-26T19:47:45.889Z,2.47
2022-09-26T19:50:25.599Z,2.43
2022-09-26T19:52:55.328Z,2.90
2022-09-26T19:55:25.010Z,2.30
2022-09-26T19:58:00.094Z,2.33
2022-09-26T20:00:27.391Z,2.60
2022-09-26T20:02:54.807Z,2.33
2022-09-26T20:05:24.838Z,2.30
2022-09-26T20:07:52.431Z,2.10
2022-09-26T20:10:23.816Z,2.37
2022-09-26T20:12:51.205Z,2.10
2022-09-26T20:15:19.448Z,2.33
2022-09-26T20:17:47.371Z,2.47
2022-09-26T20:20:24.071Z,2.30
2022-09-26T20:22:54.962Z,2.70
2022-09-26T20:25:26.968Z,2.87
2022-09-26T20:27:55.715Z,2.97
2022-09-26T20:30:23.421Z,3.13
2022-09-26T20:32:50.612Z,2.90
2022-09-26T20:35:17.875Z,3.20
2022-09-26T20:37:45.130Z,4.03
2022-09-26T20:40:20.168Z,4.30
2022-09-26T20:42:50.925Z,3.73
2022-09-26T20:45:22.305Z,4.57
2022-09-26T20:47:49.526Z,4.73
2022-09-26T20:50:19.152Z,4.30
2022-09-26T20:52:46.626Z,4.40
2022-09-26T20:55:15.070Z,3.83
2022-09-26T20:57:42.576Z,3.83
2022-09-26T21:00:17.761Z,4.57
2022-09-26T21:02:46.823Z,4.83
2022-09-26T21:05:17.973Z,4.67
2022-09-26T21:07:46.779Z,4.77
2022-09-26T21:10:31.527Z,5.40
2022-09-26T21:13:00.637Z,5.23
2022-09-26T21:15:30.447Z,5.23
2022-09-26T21:17:58.540Z,6.27
2022-09-26T21:20:27.510Z,5.10
2022-09-26T21:22:56.138Z,6.07
2022-09-26T21:25:25.653Z,5.70
2022-09-26T21:27:54.938Z,5.30
2022-09-26T21:30:22.433Z,5.30
2022-09-26T21:32:57.384Z,5.80
2022-09-26T21:35:29.650Z,5.80
2022-09-26T21:37:57.897Z,5.70
2022-09-26T21:40:27.081Z,6.53
2022-09-26T21:42:57.988Z,6.57
2022-09-26T21:45:27.534Z,5.87
2022-09-26T21:47:56.223Z,6.07
2022-09-26T21:50:25.589Z,5.37
2022-09-26T21:52:58.745Z,5.93
2022-09-26T21:55:28.899Z,5.97
2022-09-26T21:57:59.436Z,5.73
2022-09-26T22:00:26.929Z,5.73
2022-09-26T22:02:54.417Z,5.77
2022-09-26T22:05:22.004Z,5.53
2022-09-26T22:07:49.455Z,6.07
2022-09-26T22:10:16.996Z,6.10
2022-09-26T22:12:44.453Z,5.70
2022-09-26T22:15:11.923Z,6.60
2022-09-26T22:17:39.422Z,6.27
2022-09-26T22:20:07.003Z,5.40
2022-09-26T22:22:34.481Z,6.80
2022-09-26T22:25:02.000Z,6.93
2022-09-26T22:27:29.490Z,4.87
2022-09-26T22:29:56.968Z,6.17
2022-09-26T22:32:24.411Z,5.40
2022-09-26T22:34:52.129Z,5.93
2022-09-26T22:37:19.670Z,3.57
2022-09-26T22:39:47.166Z,5.23
2022-09-26T22:42:14.658Z,5.10
2022-09-26T22:44:42.124Z,5.50
2022-09-26T22:47:09.641Z,5.73
2022-09-26T22:49:37.124Z,5.17
2022-09-26T22:52:04.599Z,4.97
2022-09-26T22:54:32.067Z,5.67
2022-09-26T22:56:59.539Z,4.70
2022-09-26T22:59:27.032Z,5.20
2022-09-26T23:01:56.643Z,4.77
2022-09-26T23:04:24.183Z,5.10
2022-09-26T23:06:51.637Z,4.90
2022-09-26T23:09:19.140Z,4.47
2022-09-26T23:11:46.623Z,5.50
2022-09-26T23:14:14.125Z,4.77
2022-09-26T23:16:41.656Z,4.07
2022-09-26T23:19:09.223Z,3.80
2022-09-26T23:21:36.671Z,3.23
2022-09-26T23:24:04.200Z,3.93
2022-09-26T23:26:32.338Z,3.43
2022-09-26T23:29:00.522Z,3.70
2022-09-26T23:31:28.529Z,4.17
2022-09-26T23:33:56.811Z,3.53
2022-09-26T23:36:24.457Z,4.07
2022-09-26T23:38:51.947Z,4.17
2022-09-26T23:41:19.406Z,4.60
2022-09-26T23:43:46.908Z,3.90
2022-09-26T23:46:14.561Z,3.70
2022-09-26T23:48:42.401Z,2.90
2022-09-26T23:51:10.103Z,2.93
2022-09-26T23:53:37.806Z,3.33
2022-09-26T23:56:09.359Z,3.40
2022-09-26T23:58:37.230Z,3.60
